Time;durP1;ratioP1;P1;durP2;ratioP2;P2;SDS_P1;SDS_P2;PMS_P1;PMS_P2;Temp;Humidity;BMP_temperature;BMP_pressure;BME280_temperature;BME280_humidity;BME280_pressure;Samples;Min_cycle;Max_cycle;Signal;HPM_P1;HPM_P2
2023/05/07 00:00:36;;;;;;;10.32;7.25;;;23.30;53.80;;;;;;7604946;23;82425;-62
2023/05/07 00:03:37;;;;;;;9.20;7.35;;;23.30;53.80;;;;;;7606256;23;80583;-61
2023/05/07 00:06:38;;;;;;;9.57;7.32;;;23.30;53.70;;;;;;7605407;23;80338;-62
2023/05/07 00:09:38;;;;;;;11.63;6.30;;;23.40;53.70;;;;;;7605486;23;80475;-62
2023/05/07 00:12:39;;;;;;;7.30;6.07;;;23.40;53.70;;;;;;7605413;23;80458;-65
2023/05/07 00:15:39;;;;;;;9.00;6.93;;;23.40;53.80;;;;;;7605844;23;80457;-67
2023/05/07 00:18:40;;;;;;;8.88;7.00;;;23.30;53.70;;;;;;7601016;23;80367;-63
2023/05/07 00:21:41;;;;;;;8.98;7.00;;;23.30;53.70;;;;;;7606075;23;80304;-69
2023/05/07 00:24:42;;;;;;;9.45;7.65;;;23.30;53.70;;;;;;7606239;23;80409;-68
2023/05/07 00:27:42;;;;;;;10.65;7.25;;;23.30;53.70;;;;;;7605355;23;80830;-68
2023/05/07 00:30:43;;;;;;;11.63;7.25;;;23.30;53.70;;;;;;7605372;23;80234;-69
2023/05/07 00:33:43;;;;;;;8.85;6.65;;;23.30;53.70;;;;;;7578982;23;82213;-67
2023/05/07 00:36:44;;;;;;;10.18;7.38;;;23.30;53.70;;;;;;7606291;23;80237;-69
2023/05/07 00:39:44;;;;;;;8.95;7.38;;;23.30;53.60;;;;;;7605722;23;84664;-69
2023/05/07 00:42:46;;;;;;;9.30;7.05;;;23.20;53.50;;;;;;7606409;23;80771;-69
2023/05/07 00:45:47;;;;;;;10.55;7.25;;;23.30;53.60;;;;;;7606316;23;80538;-67
2023/05/07 00:48:47;;;;;;;8.82;6.72;;;23.30;53.50;;;;;;7605988;23;80741;-66
2023/05/07 00:51:48;;;;;;;11.50;6.65;;;23.30;53.50;;;;;;7605513;23;80391;-66
2023/05/07 00:54:49;;;;;;;13.63;7.75;;;23.20;53.40;;;;;;7605197;23;81540;-67
2023/05/07 00:57:49;;;;;;;12.73;7.13;;;23.20;53.40;;;;;;7579497;23;83340;-65
2023/05/07 01:00:50;;;;;;;15.55;7.25;;;23.20;53.30;;;;;;7605197;23;80586;-65
2023/05/07 01:03:51;;;;;;;10.55;7.60;;;23.20;53.30;;;;;;7604734;23;80327;-65
2023/05/07 01:06:51;;;;;;;10.93;6.50;;;23.20;53.30;;;;;;7606261;23;80357;-66
2023/05/07 01:09:52;;;;;;;10.88;6.63;;;23.20;53.20;;;;;;7605824;23;80145;-66
2023/05/07 01:12:52;;;;;;;9.70;6.32;;;23.20;53.20;;;;;;7604431;23;80623;-68
2023/05/07 01:15:53;;;;;;;9.77;6.28;;;23.20;53.20;;;;;;7578236;23;82949;-71
2023/05/07 01:18:53;;;;;;;10.80;6.72;;;23.20;53.10;;;;;;7578665;23;83075;-58
2023/05/07 01:21:54;;;;;;;13.00;6.95;;;23.20;53.10;;;;;;7577106;23;82978;-59
2023/05/07 01:24:59;;;;;;;10.77;6.22;;;23.20;53.00;;;;;;7578346;23;80651;-57
2023/05/07 01:28:02;;;;;;;10.32;6.93;;;23.20;53.00;;;;;;7578532;23;83085;-59
2023/05/07 01:31:05;;;;;;;11.45;6.47;;;23.20;53.00;;;;;;7578616;23;81617;-59
2023/05/07 01:34:07;;;;;;;11.52;6.78;;;23.20;53.00;;;;;;7577197;23;83217;-58
2023/05/07 01:37:07;;;;;;;11.52;6.32;;;23.20;53.00;;;;;;7578499;23;81435;-58
2023/05/07 01:40:08;;;;;;;13.48;6.40;;;23.20;53.10;;;;;;7578619;23;82194;-59
2023/05/07 01:43:08;;;;;;;10.90;6.40;;;23.20;52.90;;;;;;7578140;23;83258;-59
2023/05/07 01:46:10;;;;;;;10.48;6.20;;;23.20;52.80;;;;;;7575489;23;83590;-59
2023/05/07 01:49:11;;;;;;;10.10;6.32;;;23.20;52.70;;;;;;7578425;23;81432;-60
2023/05/07 01:52:11;;;;;;;8.10;6.13;;;23.20;52.80;;;;;;7605038;23;80070;-60
2023/05/07 01:55:12;;;;;;;13.50;5.90;;;23.20;52.70;;;;;;7605382;23;80534;-64
2023/05/07 01:58:13;;;;;;;10.18;5.75;;;23.30;52.70;;;;;;7577411;23;82981;-64
2023/05/07 02:01:14;;;;;;;9.73;6.03;;;23.20;52.50;;;;;;7578647;23;83137;-62
2023/05/07 02:04:14;;;;;;;10.52;6.25;;;23.20;52.70;;;;;;7577784;23;83513;-62
2023/05/07 02:07:15;;;;;;;12.10;6.45;;;23.20;52.60;;;;;;7578554;23;83264;-61
2023/05/07 02:10:16;;;;;;;13.30;6.93;;;23.20;52.60;;;;;;7574814;23;83674;-62
2023/05/07 02:13:17;;;;;;;7.40;6.05;;;23.20;52.50;;;;;;7605371;23;80542;-70
2023/05/07 02:16:19;;;;;;;12.05;7.05;;;23.20;52.50;;;;;;7577720;23;83327;-69
2023/05/07 02:19:21;;;;;;;9.00;6.30;;;23.20;52.50;;;;;;7577635;23;83228;-68
2023/05/07 02:22:21;;;;;;;9.25;6.20;;;23.20;53.10;;;;;;7577912;23;82073;-66
2023/05/07 02:25:22;;;;;;;10.43;6.65;;;23.20;52.50;;;;;;7604569;23;80342;-66
2023/05/07 02:28:22;;;;;;;9.45;6.60;;;23.20;52.50;;;;;;7577235;23;83681;-67
2023/05/07 02:31:37;;;;;;;11.60;5.90;;;23.20;52.50;;;;;;7578635;23;83177;-67
2023/05/07 02:34:37;;;;;;;8.95;6.50;;;23.20;52.50;;;;;;7577818;23;81477;-68
2023/05/07 02:37:38;;;;;;;11.45;5.90;;;23.10;52.50;;;;;;7578281;23;82937;-68
2023/05/07 02:40:39;;;;;;;9.57;6.07;;;23.20;52.40;;;;;;7578637;23;83382;-71
2023/05/07 02:43:40;;;;;;;11.07;6.68;;;23.10;52.20;;;;;;7578753;23;83465;-72
2023/05/07 02:46:40;;;;;;;9.40;6.88;;;23.10;52.20;;;;;;7583209;23;83223;-69
2023/05/07 02:49:44;;;;;;;12.07;6.97;;;23.10;52.20;;;;;;7600812;23;80740;-68
2023/05/07 02:52:45;;;;;;;9.48;5.85;;;23.10;52.10;;;;;;7603706;23;80438;-68
2023/05/07 02:55:45;;;;;;;11.68;6.68;;;23.10;51.90;;;;;;7603823;23;80139;-68
2023/05/07 02:58:46;;;;;;;11.07;6.32;;;23.10;51.80;;;;;;7605430;23;81115;-65
2023/05/07 03:01:48;;;;;;;12.65;6.22;;;23.10;51.70;;;;;;7577756;23;82824;-66
2023/05/07 03:04:49;;;;;;;12.63;6.60;;;23.10;51.70;;;;;;7573897;23;82322;-64
2023/05/07 03:07:50;;;;;;;8.50;5.13;;;23.10;51.80;;;;;;7577904;23;83604;-60
2023/05/07 03:10:50;;;;;;;9.93;6.18;;;23.10;51.80;;;;;;7603606;23;80047;-60
2023/05/07 03:13:51;;;;;;;7.78;5.40;;;23.10;51.70;;;;;;7575870;23;83231;-61
2023/05/07 03:16:54;;;;;;;8.90;5.28;;;23.10;51.80;;;;;;7577252;23;83258;-61
2023/05/07 03:19:54;;;;;;;8.15;5.43;;;23.10;51.70;;;;;;7601469;23;80308;-59
2023/05/07 03:22:55;;;;;;;7.60;4.72;;;23.10;51.50;;;;;;7579184;23;83344;-61
2023/05/07 03:25:56;;;;;;;7.80;4.90;;;23.10;51.50;;;;;;7605062;23;80152;-60
2023/05/07 03:28:56;;;;;;;7.55;4.75;;;23.10;51.50;;;;;;7578982;23;83070;-60
2023/05/07 03:31:57;;;;;;;6.97;4.72;;;23.10;51.60;;;;;;7605471;23;80462;-60
2023/05/07 03:34:58;;;;;;;7.15;4.32;;;23.10;51.60;;;;;;7578631;23;83347;-61
2023/05/07 03:37:58;;;;;;;14.57;4.72;;;23.10;51.30;;;;;;7575549;23;83407;-62
2023/05/07 03:41:01;;;;;;;5.93;4.20;;;23.10;51.40;;;;;;7577194;23;82606;-61
2023/05/07 03:44:02;;;;;;;5.18;3.85;;;23.10;51.30;;;;;;7577051;23;80329;-67
2023/05/07 03:47:02;;;;;;;9.93;4.40;;;23.10;51.30;;;;;;7578021;23;83108;-68
2023/05/07 03:50:03;;;;;;;5.60;3.83;;;23.10;51.30;;;;;;7578104;23;83303;-65
2023/05/07 03:53:04;;;;;;;5.50;3.92;;;23.10;51.30;;;;;;7604577;23;79974;-66
2023/05/07 03:56:08;;;;;;;8.82;3.80;;;23.10;51.30;;;;;;7577773;23;87749;-67
2023/05/07 03:59:11;;;;;;;5.78;3.80;;;23.10;51.20;;;;;;7575417;23;83179;-63
2023/05/07 04:02:12;;;;;;;3.30;2.58;;;23.10;51.30;;;;;;7604856;23;81500;-61
2023/05/07 04:05:13;;;;;;;5.18;3.38;;;23.00;51.20;;;;;;7578366;23;83233;-61
2023/05/07 04:08:14;;;;;;;4.80;3.17;;;23.00;51.10;;;;;;7578176;23;82205;-62
2023/05/07 04:11:20;;;;;;;4.82;2.60;;;23.00;51.10;;;;;;7578975;23;83021;-62
2023/05/07 04:14:21;;;;;;;4.80;2.83;;;23.10;51.00;;;;;;7579037;23;81902;-63
2023/05/07 04:17:22;;;;;;;6.20;2.67;;;23.00;50.90;;;;;;7577459;23;83245;-64
2023/05/07 04:20:23;;;;;;;4.28;2.85;;;23.00;51.00;;;;;;7578399;23;81578;-59
2023/05/07 04:23:30;;;;;;;3.05;2.50;;;23.00;50.90;;;;;;7579369;23;83463;-59
2023/05/07 04:26:34;;;;;;;2.17;1.98;;;23.00;50.80;;;;;;7578710;23;81298;-59
2023/05/07 04:29:34;;;;;;;2.75;2.03;;;23.00;50.70;;;;;;7577386;23;82192;-59
2023/05/07 04:32:37;;;;;;;3.53;2.25;;;23.00;50.80;;;;;;7572321;23;81364;-58
2023/05/07 04:35:38;;;;;;;3.38;2.60;;;23.00;50.80;;;;;;7587527;23;82162;-59
2023/05/07 04:38:40;;;;;;;3.40;2.00;;;23.00;50.70;;;;;;7561618;23;83461;-61
2023/05/07 04:41:41;;;;;;;5.18;2.40;;;23.00;50.70;;;;;;7562175;23;82141;-60
2023/05/07 04:44:43;;;;;;;3.50;2.40;;;23.00;50.60;;;;;;7564532;23;80483;-60
2023/05/07 04:47:43;;;;;;;3.38;2.20;;;23.00;50.80;;;;;;7571992;23;81491;-62
2023/05/07 04:50:44;;;;;;;4.45;2.42;;;23.00;50.60;;;;;;7551858;23;83374;-62
2023/05/07 04:53:46;;;;;;;3.08;1.95;;;23.10;50.70;;;;;;7571376;23;82684;-63
2023/05/07 04:56:47;;;;;;;6.07;2.30;;;23.00;51.10;;;;;;7570709;23;83243;-71
2023/05/07 04:59:48;;;;;;;4.00;2.20;;;23.00;51.00;;;;;;7575363;23;82023;-75
2023/05/07 05:02:49;;;;;;;5.78;2.28;;;23.10;50.90;;;;;;7576128;23;81638;-74
2023/05/07 05:05:53;;;;;;;7.40;2.28;;;23.00;50.70;;;;;;7574867;23;83303;-70
2023/05/07 05:08:55;;;;;;;3.08;2.10;;;23.00;50.60;;;;;;7578553;23;83408;-69
2023/05/07 05:11:56;;;;;;;2.78;2.08;;;23.00;50.50;;;;;;7573635;23;83242;-67
2023/05/07 05:14:57;;;;;;;3.25;1.67;;;23.00;50.50;;;;;;7574799;23;82095;-72
2023/05/07 05:17:58;;;;;;;2.97;2.08;;;23.00;50.30;;;;;;7577001;23;81967;-62
2023/05/07 05:20:58;;;;;;;3.45;1.80;;;23.00;50.30;;;;;;7573918;23;83173;-65
2023/05/07 05:24:00;;;;;;;3.67;2.38;;;23.00;50.70;;;;;;7573407;23;82912;-64
2023/05/07 05:27:02;;;;;;;2.10;1.73;;;23.00;50.70;;;;;;7573638;23;82700;-65
2023/05/07 05:30:05;;;;;;;4.47;2.13;;;23.00;50.70;;;;;;7576005;23;83575;-68
2023/05/07 05:33:06;;;;;;;2.08;1.88;;;23.00;50.90;;;;;;7574670;23;80371;-71
2023/05/07 05:36:07;;;;;;;3.58;1.67;;;23.00;50.60;;;;;;7574349;23;83080;-68
2023/05/07 05:39:09;;;;;;;3.25;1.88;;;23.00;50.60;;;;;;7574402;23;82384;-72
2023/05/07 05:42:09;;;;;;;4.47;2.03;;;23.00;50.80;;;;;;7574934;23;83281;-68
2023/05/07 05:45:10;;;;;;;4.72;1.88;;;23.00;51.30;;;;;;7576365;23;83278;-68
2023/05/07 05:48:11;;;;;;;2.72;1.50;;;23.00;50.80;;;;;;7577119;23;82143;-66
2023/05/07 05:51:12;;;;;;;3.60;1.80;;;23.00;50.80;;;;;;7602700;23;80242;-68
2023/05/07 05:54:13;;;;;;;5.38;2.08;;;23.00;50.90;;;;;;7577832;23;83155;-66
2023/05/07 05:57:14;;;;;;;1.63;1.48;;;23.00;50.90;;;;;;7577899;23;83639;-62
2023/05/07 06:00:15;;;;;;;2.15;1.63;;;23.00;50.60;;;;;;7601098;23;80823;-67
2023/05/07 06:03:22;;;;;;;4.10;1.50;;;23.00;50.70;;;;;;7602747;23;80095;-64
2023/05/07 06:06:23;;;;;;;6.10;1.48;;;22.90;50.60;;;;;;7577849;23;83118;-67
2023/05/07 06:09:23;;;;;;;2.55;1.70;;;22.90;50.70;;;;;;7602059;23;80230;-67
2023/05/07 06:12:25;;;;;;;3.85;1.60;;;22.90;51.10;;;;;;7603427;23;80795;-60
2023/05/07 06:15:25;;;;;;;3.42;1.73;;;22.90;51.00;;;;;;7574845;23;81371;-61
2023/05/07 06:18:26;;;;;;;3.38;1.83;;;23.00;51.60;;;;;;7576078;23;83665;-60
2023/05/07 06:21:27;;;;;;;3.35;1.50;;;23.00;51.10;;;;;;7551553;23;82927;-62
2023/05/07 06:24:29;;;;;;;3.28;1.60;;;23.00;51.60;;;;;;7577144;23;83005;-63
2023/05/07 06:27:29;;;;;;;4.28;1.73;;;23.00;51.50;;;;;;7574760;23;83513;-64
2023/05/07 06:30:31;;;;;;;1.92;1.75;;;23.00;51.80;;;;;;7574480;23;80427;-70
2023/05/07 06:33:31;;;;;;;4.40;1.85;;;23.00;51.40;;;;;;7577148;23;83000;-72
2023/05/07 06:36:32;;;;;;;1.98;1.30;;;23.10;52.10;;;;;;7602060;23;81818;-76
2023/05/07 06:39:35;;;;;;;5.60;1.33;;;23.10;51.60;;;;;;7574508;23;82974;-68
2023/05/07 06:42:36;;;;;;;3.45;1.60;;;23.10;52.40;;;;;;7602060;23;80675;-66
2023/05/07 06:45:55;;;;;;;6.68;1.30;;;23.10;52.10;;;;;;7575367;23;83289;-68
2023/05/07 06:48:56;;;;;;;2.30;1.30;;;23.10;52.10;;;;;;7575692;23;82140;-64
2023/05/07 06:51:57;;;;;;;1.83;1.23;;;23.20;51.80;;;;;;7576642;23;83642;-63
2023/05/07 06:54:58;;;;;;;4.40;2.00;;;23.20;52.00;;;;;;7576761;23;81381;-62
2023/05/07 06:58:00;;;;;;;2.60;1.50;;;23.10;52.00;;;;;;7532629;23;82961;-62
2023/05/07 07:01:02;;;;;;;2.83;1.77;;;23.10;51.70;;;;;;7572490;23;82903;-63
2023/05/07 07:04:03;;;;;;;3.30;1.58;;;23.10;51.80;;;;;;7575862;23;82995;-63
2023/05/07 07:07:04;;;;;;;4.25;1.75;;;23.10;52.00;;;;;;7559574;23;83469;-63
2023/05/07 07:10:05;;;;;;;4.68;2.45;;;23.10;52.10;;;;;;7572024;23;82063;-63
2023/05/07 07:13:06;;;;;;;5.38;2.67;;;23.10;52.10;;;;;;7572918;23;83236;-63
2023/05/07 07:16:06;;;;;;;6.40;3.17;;;23.10;51.90;;;;;;7573496;23;83384;-63
2023/05/07 07:19:07;;;;;;;7.60;3.85;;;23.10;52.70;;;;;;7574014;23;83045;-62
2023/05/07 07:22:08;;;;;;;10.77;4.35;;;23.20;53.30;;;;;;7600897;23;80497;-62
2023/05/07 07:25:08;;;;;;;10.75;4.32;;;23.10;53.40;;;;;;7572880;23;82826;-62
2023/05/07 07:28:10;;;;;;;10.65;4.45;;;23.20;53.10;;;;;;7600582;23;80760;-64
2023/05/07 07:31:12;;;;;;;8.30;3.53;;;23.20;52.90;;;;;;7572224;23;82409;-64
2023/05/07 07:34:12;;;;;;;6.05;3.35;;;23.20;52.90;;;;;;7570807;23;83288;-66
2023/05/07 07:37:13;;;;;;;8.57;3.67;;;23.20;52.40;;;;;;7564287;23;82814;-67
2023/05/07 07:40:14;;;;;;;9.57;3.65;;;23.20;52.50;;;;;;7569971;23;83103;-69
2023/05/07 07:43:15;;;;;;;9.40;3.40;;;23.20;52.40;;;;;;7573940;23;81979;-63
2023/05/07 07:46:17;;;;;;;4.90;3.25;;;23.20;52.40;;;;;;7568172;23;81417;-70
2023/05/07 07:49:17;;;;;;;7.05;3.20;;;23.20;52.40;;;;;;7572945;23;83160;-68
2023/05/07 07:52:18;;;;;;;7.38;3.03;;;23.20;52.30;;;;;;7575473;23;83191;-62
2023/05/07 07:55:22;;;;;;;7.63;3.83;;;23.20;51.80;;;;;;7575546;23;83215;-66
2023/05/07 07:58:24;;;;;;;8.70;4.22;;;23.10;51.40;;;;;;7575824;23;83412;-64
2023/05/07 08:01:26;;;;;;;8.57;4.80;;;23.10;51.50;;;;;;7574886;23;82807;-64
2023/05/07 08:04:27;;;;;;;10.30;4.97;;;23.10;52.50;;;;;;7572927;23;83391;-62
2023/05/07 08:07:30;;;;;;;11.65;5.22;;;23.10;52.60;;;;;;7573892;23;83184;-58
2023/05/07 08:10:34;;;;;;;8.07;4.57;;;23.10;52.00;;;;;;7604676;23;80005;-57
2023/05/07 08:13:38;;;;;;;7.88;3.72;;;23.10;51.90;;;;;;7576215;23;81871;-59
2023/05/07 08:16:39;;;;;;;9.48;4.47;;;23.10;51.50;;;;;;7567097;23;82223;-62
2023/05/07 08:19:41;;;;;;;9.85;3.53;;;23.10;51.90;;;;;;7570972;23;81505;-63
2023/05/07 08:22:45;;;;;;;6.63;3.55;;;23.10;50.50;;;;;;7574015;23;83024;-61
2023/05/07 08:25:46;;;;;;;10.63;3.97;;;22.90;49.60;;;;;;7574129;23;83326;-66
2023/05/07 08:28:47;;;;;;;15.18;5.00;;;22.80;49.30;;;;;;7574551;23;82152;-70
2023/05/07 08:31:48;;;;;;;8.27;3.65;;;22.90;51.10;;;;;;7573852;23;83224;-74
2023/05/07 08:34:48;;;;;;;9.35;3.47;;;22.90;50.60;;;;;;7576164;23;82914;-60
2023/05/07 08:37:49;;;;;;;8.05;3.38;;;22.90;50.70;;;;;;7570881;23;81407;-71
2023/05/07 08:40:52;;;;;;;5.25;3.15;;;23.00;51.00;;;;;;7576700;23;83236;-69
2023/05/07 08:43:54;;;;;;;9.40;3.10;;;23.00;50.80;;;;;;7578803;23;80887;-71
2023/05/07 08:46:55;;;;;;;5.88;2.90;;;23.00;50.60;;;;;;7607318;23;80668;-72
2023/05/07 08:49:56;;;;;;;7.85;3.40;;;23.10;50.40;;;;;;7583863;23;80801;-73
2023/05/07 08:52:57;;;;;;;5.13;2.58;;;23.10;50.40;;;;;;7577659;23;83152;-72
2023/05/07 08:55:58;;;;;;;5.88;2.40;;;23.10;50.30;;;;;;7606516;23;80785;-71
2023/05/07 08:58:59;;;;;;;4.32;2.42;;;23.10;50.10;;;;;;7578989;23;82782;-70
2023/05/07 09:02:02;;;;;;;6.60;2.72;;;23.20;49.90;;;;;;7579460;23;81793;-68
2023/05/07 09:05:02;;;;;;;3.85;2.10;;;23.20;49.70;;;;;;7574416;23;80193;-72
2023/05/07 09:08:03;;;;;;;3.72;2.00;;;23.20;49.50;;;;;;7556023;23;82191;-73
2023/05/07 09:11:04;;;;;;;2.92;1.77;;;23.20;49.50;;;;;;7578450;23;83700;-72
2023/05/07 09:14:05;;;;;;;3.28;1.98;;;23.20;49.20;;;;;;7578448;23;87317;-71
2023/05/07 09:17:11;;;;;;;;;;;23.20;49.00;;;;;;7578941;23;82955;-71
2023/05/07 09:20:11;;;;;;;4.32;2.08;;;23.20;48.80;;;;;;7609907;23;80355;-70
2023/05/07 09:23:13;;;;;;;2.78;1.60;;;23.30;48.60;;;;;;7577846;23;80571;-71
2023/05/07 09:26:14;;;;;;;5.35;2.15;;;23.30;48.60;;;;;;7608553;23;80663;-70
2023/05/07 09:29:17;;;;;;;3.50;1.88;;;23.30;48.50;;;;;;7576792;23;83232;-69
2023/05/07 09:32:17;;;;;;;2.65;1.83;;;23.30;48.30;;;;;;7579293;23;83138;-67
2023/05/07 09:35:18;;;;;;;2.05;1.60;;;23.20;48.10;;;;;;7575937;23;82655;-64
2023/05/07 09:38:23;;;;;;;2.72;1.90;;;23.20;48.00;;;;;;7582887;23;82751;-65
2023/05/07 09:41:28;;;;;;;2.83;1.70;;;23.10;47.80;;;;;;7581038;23;83168;-66
2023/05/07 09:44:37;;;;;;;3.00;1.50;;;23.10;47.80;;;;;;7580263;23;82496;-66
2023/05/07 09:47:40;;;;;;;3.47;1.70;;;23.10;47.40;;;;;;7579781;23;82554;-67
2023/05/07 09:50:40;;;;;;;2.20;1.77;;;23.10;47.40;;;;;;7602709;23;80170;-68
2023/05/07 09:53:41;;;;;;;1.73;1.55;;;23.20;47.70;;;;;;7606465;23;80322;-73
2023/05/07 09:56:42;;;;;;;1.95;1.75;;;23.20;47.60;;;;;;7604669;23;80373;-76
2023/05/07 09:59:44;;;;;;;2.95;1.85;;;23.20;47.30;;;;;;7579015;23;83377;-72
2023/05/07 10:02:49;;;;;;;4.60;1.90;;;23.20;47.10;;;;;;7574277;23;80428;-66
2023/05/07 10:05:50;;;;;;;1.73;1.60;;;23.20;47.00;;;;;;7607280;23;80267;-73
2023/05/07 10:08:52;;;;;;;2.55;1.65;;;23.20;47.10;;;;;;7579893;23;81629;-70
2023/05/07 10:11:53;;;;;;;3.15;1.75;;;23.20;47.00;;;;;;7578229;23;83497;-67
2023/05/07 10:14:55;;;;;;;2.72;1.83;;;23.20;46.90;;;;;;7579251;23;82121;-71
2023/05/07 10:17:56;;;;;;;2.45;1.70;;;23.20;46.70;;;;;;7575188;23;82992;-63
2023/05/07 10:20:58;;;;;;;4.57;2.10;;;23.30;46.60;;;;;;7577857;23;83064;-67
2023/05/07 10:23:59;;;;;;;2.72;1.83;;;23.20;46.60;;;;;;7576421;23;81461;-62
2023/05/07 10:27:00;;;;;;;2.38;1.77;;;23.20;46.40;;;;;;7577635;23;80478;-65
2023/05/07 10:30:01;;;;;;;2.95;2.00;;;23.30;46.40;;;;;;7578642;23;83142;-61
2023/05/07 10:33:05;;;;;;;3.58;2.22;;;23.20;46.80;;;;;;7575434;23;82862;-61
2023/05/07 10:36:07;;;;;;;4.78;2.45;;;23.30;46.50;;;;;;7575923;23;82570;-61
2023/05/07 10:39:08;;;;;;;6.55;1.90;;;23.30;46.80;;;;;;7575267;23;83144;-60
2023/05/07 10:42:09;;;;;;;8.85;1.80;;;23.30;47.10;;;;;;7575222;23;81439;-61
2023/05/07 10:45:10;;;;;;;3.80;2.10;;;23.30;47.50;;;;;;7577315;23;81581;-60
2023/05/07 10:48:11;;;;;;;6.40;2.10;;;23.30;47.50;;;;;;7604578;23;80191;-67
2023/05/07 10:51:12;;;;;;;1.90;1.55;;;23.20;47.80;;;;;;7574790;23;83010;-69
2023/05/07 10:54:12;;;;;;;2.08;1.85;;;23.20;48.70;;;;;;7574956;23;82825;-69
2023/05/07 10:57:27;;;;;;;3.15;1.85;;;23.20;48.90;;;;;;7572894;23;82913;-63
2023/05/07 11:00:29;;;;;;;2.40;1.75;;;23.20;48.10;;;;;;7575750;23;82846;-65
2023/05/07 11:03:33;;;;;;;2.20;2.00;;;23.30;47.70;;;;;;7576573;23;83566;-65
2023/05/07 11:06:38;;;;;;;6.27;2.37;;;23.20;47.10;;;;;;7575388;23;82331;-63
2023/05/07 11:09:43;;;;;;;3.53;2.40;;;23.30;47.50;;;;;;7576853;23;83191;-63
2023/05/07 11:12:44;;;;;;;3.55;2.10;;;23.20;46.40;;;;;;7604075;23;80181;-63
2023/05/07 11:15:52;;;;;;;6.10;2.13;;;23.10;46.10;;;;;;7602657;23;83073;-63
2023/05/07 11:19:01;;;;;;;5.18;2.45;;;23.00;46.00;;;;;;7599673;23;80977;-63
2023/05/07 11:22:07;;;;;;;2.30;1.80;;;22.90;46.00;;;;;;7600585;23;81871;-64
2023/05/07 11:25:16;;;;;;;3.45;2.58;;;22.80;46.00;;;;;;7599018;23;82867;-63
2023/05/07 11:28:16;;;;;;;5.57;3.08;;;22.80;46.40;;;;;;7603786;23;80399;-62
2023/05/07 11:31:23;;;;;;;25.60;13.10;;;22.70;46.90;;;;;;7601453;23;81674;-62
2023/05/07 11:34:24;;;;;;;61.63;36.75;;;22.70;47.20;;;;;;7598003;23;82989;-65
2023/05/07 11:37:27;;;;;;;70.38;40.97;;;22.70;47.40;;;;;;7597506;23;85399;-64
2023/05/07 11:40:32;;;;;;;62.47;36.17;;;22.70;47.50;;;;;;7597993;23;85637;-62
2023/05/07 11:43:33;;;;;;;76.22;45.88;;;22.70;47.90;;;;;;7598448;23;83187;-64
2023/05/07 11:46:33;;;;;;;122.88;68.45;;;22.70;48.50;;;;;;7598862;23;84130;-67
2023/05/07 11:49:34;;;;;;;129.02;72.85;;;22.80;49.10;;;;;;7593043;23;83745;-67
2023/05/07 11:52:34;;;;;;;128.23;80.55;;;22.90;50.20;;;;;;7597217;23;83451;-68
2023/05/07 11:55:35;;;;;;;159.57;102.90;;;22.90;50.80;;;;;;7594206;23;83579;-65
2023/05/07 11:58:36;;;;;;;135.80;87.10;;;23.00;51.40;;;;;;7594868;23;85562;-70
2023/05/07 12:01:36;;;;;;;121.25;74.60;;;23.10;51.60;;;;;;7597321;22;85072;-65
2023/05/07 12:04:37;;;;;;;117.45;74.20;;;23.10;51.80;;;;;;7599788;22;83264;-70
2023/05/07 12:07:38;;;;;;;122.78;72.97;;;23.20;51.60;;;;;;7572519;23;83885;-75
2023/05/07 12:10:38;;;;;;;103.00;64.13;;;23.20;51.60;;;;;;7592152;23;83916;-73
2023/05/07 12:13:39;;;;;;;111.80;62.05;;;23.20;51.20;;;;;;7590572;23;83626;-69
2023/05/07 12:16:40;;;;;;;97.50;58.90;;;23.20;51.40;;;;;;7596536;23;83671;-72
2023/05/07 12:19:40;;;;;;;89.68;54.38;;;23.30;52.10;;;;;;7598098;23;84432;-70
2023/05/07 12:22:41;;;;;;;91.72;55.08;;;23.30;51.70;;;;;;7593811;23;83060;-62
2023/05/07 12:25:47;;;;;;;88.90;54.03;;;23.30;52.20;;;;;;7597023;23;82997;-66
2023/05/07 12:28:48;;;;;;;90.47;55.63;;;23.30;51.70;;;;;;7599767;23;83301;-63
2023/05/07 12:31:48;;;;;;;78.45;47.85;;;23.30;51.60;;;;;;7599273;23;83573;-61
2023/05/07 12:34:49;;;;;;;70.20;44.15;;;23.30;51.10;;;;;;7599475;23;83538;-62
2023/05/07 12:37:50;;;;;;;70.30;41.58;;;23.30;51.00;;;;;;7598665;23;88836;-64
2023/05/07 12:40:53;;;;;;;67.32;39.35;;;23.30;50.50;;;;;;7596207;23;83215;-65
2023/05/07 12:43:54;;;;;;;54.22;35.70;;;23.20;50.30;;;;;;7582563;23;83336;-62
2023/05/07 12:46:54;;;;;;;52.33;33.17;;;23.20;50.30;;;;;;7595929;23;83670;-64
2023/05/07 12:49:55;;;;;;;52.15;32.83;;;23.20;49.80;;;;;;7597699;23;83159;-61
2023/05/07 12:52:55;;;;;;;40.22;26.27;;;23.20;49.70;;;;;;7594039;23;82907;-64
2023/05/07 12:55:56;;;;;;;47.83;26.25;;;23.20;49.40;;;;;;7591633;23;83513;-61
2023/05/07 12:58:57;;;;;;;37.67;23.60;;;23.20;49.30;;;;;;7596457;23;83671;-61
2023/05/07 13:01:57;;;;;;;35.70;21.55;;;23.20;49.30;;;;;;7600042;23;83889;-60
2023/05/07 13:04:58;;;;;;;26.75;18.50;;;23.20;50.00;;;;;;7595171;23;83558;-61
2023/05/07 13:07:58;;;;;;;37.30;18.90;;;23.20;49.40;;;;;;7598889;23;83922;-60
2023/05/07 13:10:59;;;;;;;26.73;16.63;;;23.20;49.30;;;;;;7598600;23;83281;-68
2023/05/07 13:14:00;;;;;;;24.73;16.23;;;23.20;49.10;;;;;;7596695;23;84339;-70
2023/05/07 13:17:00;;;;;;;28.20;15.43;;;23.10;49.00;;;;;;7598714;23;82733;-67
2023/05/07 13:20:01;;;;;;;22.20;14.27;;;23.10;49.00;;;;;;7598910;23;83372;-68
2023/05/07 13:23:04;;;;;;;19.98;13.85;;;23.20;48.90;;;;;;7572781;23;84795;-68
2023/05/07 13:26:04;;;;;;;22.88;13.35;;;23.10;48.70;;;;;;7595340;23;83692;-70
2023/05/07 13:29:05;;;;;;;19.90;11.85;;;23.10;48.70;;;;;;7596041;23;87761;-67
2023/05/07 13:32:05;;;;;;;19.50;11.68;;;23.10;48.60;;;;;;7570419;23;83253;-75
2023/05/07 13:35:06;;;;;;;18.08;10.82;;;23.10;48.40;;;;;;7599027;23;83461;-66
2023/05/07 13:38:07;;;;;;;18.05;10.15;;;23.20;48.50;;;;;;7599207;23;82646;-72
2023/05/07 13:41:07;;;;;;;14.25;9.73;;;23.10;48.20;;;;;;7597975;23;83224;-73
2023/05/07 13:44:08;;;;;;;15.70;8.93;;;23.10;48.00;;;;;;7602595;23;82962;-73
2023/05/07 13:47:08;;;;;;;16.95;9.65;;;23.10;48.00;;;;;;7603634;23;80901;-78
2023/05/07 13:50:09;;;;;;;15.20;8.77;;;23.10;47.80;;;;;;7574387;23;80511;-69
2023/05/07 13:53:09;;;;;;;12.52;7.50;;;23.20;47.80;;;;;;7602468;23;80977;-71
2023/05/07 13:56:10;;;;;;;14.77;8.43;;;23.20;47.90;;;;;;7603454;23;81461;-65
2023/05/07 13:59:12;;;;;;;11.20;6.53;;;23.20;47.80;;;;;;7601699;23;80346;-63
2023/05/07 14:02:12;;;;;;;13.80;6.63;;;23.20;48.30;;;;;;7602481;23;80194;-66
2023/05/07 14:05:13;;;;;;;10.13;6.20;;;23.20;48.30;;;;;;7601393;23;80068;-63
2023/05/07 14:08:13;;;;;;;8.88;5.75;;;23.10;48.30;;;;;;7573721;23;82554;-61
2023/05/07 14:11:14;;;;;;;7.80;5.97;;;23.10;48.30;;;;;;7572814;23;81531;-61
2023/05/07 14:14:15;;;;;;;16.52;5.97;;;23.20;48.50;;;;;;7601954;23;81491;-62
2023/05/07 14:17:15;;;;;;;9.50;5.43;;;23.10;49.00;;;;;;7598853;23;81486;-62
2023/05/07 14:20:16;;;;;;;7.55;5.05;;;23.10;49.50;;;;;;7601646;23;80537;-65
2023/05/07 14:23:19;;;;;;;11.50;5.15;;;23.60;50.40;;;;;;7600627;23;80046;-60
2023/05/07 14:26:20;;;;;;;15.32;5.40;;;24.00;49.70;;;;;;7599679;23;80329;-60
2023/05/07 14:29:22;;;;;;;6.65;4.50;;;24.40;48.90;;;;;;7600463;23;80981;-61
2023/05/07 14:32:22;;;;;;;9.27;5.00;;;24.20;48.30;;;;;;7600960;23;80349;-64
2023/05/07 14:35:23;;;;;;;11.27;4.68;;;24.00;48.40;;;;;;7595719;23;82438;-67
2023/05/07 14:38:23;;;;;;;6.18;3.92;;;23.90;49.00;;;;;;7601181;23;80365;-65
2023/05/07 14:41:24;;;;;;;6.57;4.47;;;23.80;49.30;;;;;;7599509;23;80944;-67
2023/05/07 14:44:24;;;;;;;6.60;3.67;;;23.80;49.20;;;;;;7601467;23;80198;-68
2023/05/07 14:47:25;;;;;;;6.32;4.00;;;23.70;49.60;;;;;;7576043;23;83021;-69
2023/05/07 14:50:26;;;;;;;6.25;3.67;;;23.60;49.60;;;;;;7599625;23;80688;-67
2023/05/07 14:53:27;;;;;;;6.70;3.85;;;23.60;49.80;;;;;;7598850;23;80487;-70
2023/05/07 14:56:27;;;;;;;7.55;4.30;;;23.60;49.80;;;;;;7600433;23;80630;-73
2023/05/07 14:59:28;;;;;;;7.03;3.10;;;23.60;49.70;;;;;;7600774;23;81745;-68
2023/05/07 15:02:28;;;;;;;5.93;3.72;;;23.60;49.70;;;;;;7602999;23;80392;-67
2023/05/07 15:05:29;;;;;;;5.05;3.55;;;23.60;49.80;;;;;;7599832;23;82064;-67
2023/05/07 15:08:30;;;;;;;5.65;3.33;;;23.50;49.80;;;;;;7600368;23;87587;-67
2023/05/07 15:11:30;;;;;;;7.88;3.35;;;23.50;49.60;;;;;;7600143;23;80711;-65
2023/05/07 15:14:31;;;;;;;4.88;3.13;;;23.50;49.80;;;;;;7604784;23;80904;-66
2023/05/07 15:17:31;;;;;;;6.95;3.53;;;23.50;50.10;;;;;;7603549;23;81009;-64
2023/05/07 15:20:32;;;;;;;5.10;3.33;;;23.50;50.00;;;;;;7602742;23;80772;-65
2023/05/07 15:23:32;;;;;;;4.88;3.00;;;23.50;50.00;;;;;;7603895;23;80100;-64
2023/05/07 15:26:33;;;;;;;3.58;2.70;;;23.50;49.90;;;;;;7600375;23;80377;-61
2023/05/07 15:29:33;;;;;;;4.50;3.25;;;23.40;49.70;;;;;;7602170;23;80731;-60
2023/05/07 15:32:35;;;;;;;8.98;3.15;;;23.50;50.10;;;;;;7573948;23;83480;-67
2023/05/07 15:35:36;;;;;;;6.63;3.10;;;23.40;50.00;;;;;;7572478;23;82838;-66
2023/05/07 15:38:36;;;;;;;4.07;2.95;;;23.40;49.90;;;;;;7603499;23;80361;-65